Logansport, Louisiana
Current Conditions -  °F | °C
As of 7:56 PM on Sunday 23 Nov 2014 (Local Time) from KSHV Reporting Station
Clear Clear  
Wind Chill: 65°   Ceiling: Unl
Heat Index: 65°   Visibility: 10mi
Dew Point: 55°   Wind: 9mph
Humidity: 70%   Direction: 210°SSW
Pressure: 29.52"   Gusts: NA
Location:  31.98°N, 94°W
Report Text: KSHV 240156Z 21008KT 10SM CLR 18/13 A2952 RMK AO2 SLP994 T01830128
Loading
Personal Weather Stations






























Interactive Weather Map New forecast layout! Learn more

10-Day Weather Forecast

Advertisements
Track Severe Weather on mobile